createdAt,value
2022-08-05T00:01:36.032Z,74.67
2022-08-05T00:04:18.796Z,73.88
2022-08-05T00:06:51.757Z,73.18
2022-08-05T00:09:20.985Z,74.77
2022-08-05T00:11:56.093Z,74.59
2022-08-05T00:14:31.590Z,74.61
2022-08-05T00:17:01.820Z,76.02
2022-08-05T00:19:33.226Z,76.41
2022-08-05T00:22:04.980Z,76.98
2022-08-05T00:24:36.631Z,76.83
2022-08-05T00:27:14.085Z,77.94
2022-08-05T00:29:47.083Z,78.07
2022-08-05T00:32:18.800Z,78.36
2022-08-05T00:35:04.494Z,78.98
2022-08-05T00:37:53.221Z,76.71
2022-08-05T00:40:29.266Z,76.56
2022-08-05T00:43:00.997Z,77.88
2022-08-05T00:45:42.958Z,77.25
2022-08-05T00:48:31.475Z,78.59
2022-08-05T00:51:08.867Z,78.67
2022-08-05T00:54:02.480Z,79.52
2022-08-05T00:56:33.159Z,79.39
2022-08-05T00:59:03.195Z,79.44
2022-08-05T01:01:42.653Z,77.40
2022-08-05T01:04:20.419Z,76.74
2022-08-05T01:06:58.261Z,77.73
2022-08-05T01:09:30.363Z,78.90
2022-08-05T01:12:18.164Z,79.71
2022-08-05T01:14:56.954Z,80.13
2022-08-05T01:17:40.118Z,80.38
2022-08-05T01:20:34.453Z,80.51
2022-08-05T01:23:23.510Z,80.31
2022-08-05T01:26:11.148Z,79.83
2022-08-05T01:28:49.732Z,80.94
2022-08-05T01:31:29.120Z,80.78
2022-08-05T01:34:21.323Z,77.83
2022-08-05T01:37:00.677Z,81.11
2022-08-05T01:39:36.818Z,80.21
2022-08-05T01:42:21.254Z,79.91
2022-08-05T01:44:54.228Z,81.47
2022-08-05T01:47:38.628Z,81.51
2022-08-05T01:50:18.450Z,80.76
2022-08-05T01:52:54.467Z,82.59
2022-08-05T01:55:32.844Z,83.27
2022-08-05T01:58:15.712Z,82.88
2022-08-05T02:00:52.696Z,83.67
2022-08-05T02:03:29.090Z,83.06
2022-08-05T02:06:33.783Z,80.43
2022-08-05T02:08:57.935Z,78.59
2022-08-05T02:11:52.831Z,77.59
2022-08-05T02:14:32.012Z,80.10
2022-08-05T02:17:16.734Z,82.92
2022-08-05T02:20:05.525Z,85.66
2022-08-05T02:22:43.152Z,85.78
2022-08-05T02:25:22.772Z,81.78
2022-08-05T02:28:00.480Z,80.34
2022-08-05T02:30:51.789Z,79.89
2022-08-05T02:33:36.013Z,79.98
2022-08-05T02:36:13.727Z,81.93
2022-08-05T02:38:53.702Z,82.58
2022-08-05T02:41:29.003Z,83.37
2022-08-05T02:44:13.341Z,80.72
2022-08-05T02:46:58.251Z,83.22
2022-08-05T02:49:35.644Z,84.11
2022-08-05T02:52:11.489Z,81.18
2022-08-05T02:54:52.302Z,80.93
2022-08-05T02:58:10.887Z,83.27
2022-08-05T03:00:13.414Z,81.60
2022-08-05T03:02:45.075Z,81.75
2022-08-05T03:05:15.668Z,83.99
2022-08-05T03:08:07.408Z,85.59
2022-08-05T03:10:35.351Z,84.35
2022-08-05T03:13:16.881Z,83.20
2022-08-05T03:15:47.674Z,82.45
2022-08-05T03:18:17.580Z,83.90
2022-08-05T03:20:53.971Z,85.37
2022-08-05T03:23:24.691Z,85.57
2022-08-05T03:26:05.027Z,84.90
2022-08-05T03:28:43.958Z,85.62
2022-08-05T03:31:55.282Z,85.65
2022-08-05T03:34:05.311Z,86.10
2022-08-05T03:36:34.891Z,87.01
2022-08-05T03:39:13.159Z,86.75
2022-08-05T03:41:49.495Z,86.93
2022-08-05T03:44:23.904Z,86.64
2022-08-05T03:46:53.677Z,87.05
2022-08-05T03:49:30.906Z,86.30
2022-08-05T03:52:37.774Z,85.68
2022-08-05T03:56:06.146Z,83.90
2022-08-05T03:58:18.533Z,84.69
2022-08-05T04:00:51.474Z,84.60
2022-08-05T04:03:26.737Z,82.87
2022-08-05T04:05:59.421Z,81.51
2022-08-05T04:08:36.270Z,83.81
2022-08-05T04:11:08.637Z,84.79
2022-08-05T04:13:51.288Z,83.05
2022-08-05T04:16:25.445Z,84.22
2022-08-05T04:19:03.560Z,83.97
2022-08-05T04:22:08.824Z,82.89
2022-08-05T04:24:30.209Z,82.36
2022-08-05T04:26:59.207Z,82.19
2022-08-05T04:29:30.049Z,81.10
2022-08-05T04:31:59.556Z,80.36
2022-08-05T04:34:33.863Z,79.38
2022-08-05T04:37:04.286Z,78.33
2022-08-05T04:39:39.191Z,77.44
2022-08-05T04:42:18.846Z,77.40
2022-08-05T04:44:58.010Z,77.46
2022-08-05T04:47:29.962Z,77.30
2022-08-05T04:50:11.461Z,77.03
2022-08-05T04:52:41.354Z,77.08
2022-08-05T04:55:14.322Z,77.08
2022-08-05T04:57:47.756Z,76.80
2022-08-05T05:00:17.454Z,75.86
2022-08-05T05:02:46.586Z,75.40
2022-08-05T05:05:16.893Z,74.61
2022-08-05T05:08:03.723Z,74.12
2022-08-05T05:10:37.998Z,73.19
2022-08-05T05:13:06.784Z,73.42
2022-08-05T05:15:57.418Z,73.99
2022-08-05T05:18:31.043Z,72.01
2022-08-05T05:21:04.332Z,68.90
2022-08-05T05:24:01.913Z,66.93
2022-08-05T05:26:28.689Z,64.74
2022-08-05T05:29:10.058Z,64.01
2022-08-05T05:31:46.331Z,63.46
2022-08-05T05:34:16.645Z,61.99
2022-08-05T05:36:47.192Z,61.97
2022-08-05T05:39:20.326Z,63.00
2022-08-05T05:41:54.796Z,63.55
2022-08-05T05:44:36.766Z,60.02
2022-08-05T05:47:21.283Z,57.54
2022-08-05T05:49:56.565Z,57.80
2022-08-05T05:52:29.912Z,53.77
2022-08-05T05:55:07.349Z,55.04
2022-08-05T05:57:52.574Z,51.24
2022-08-05T06:00:27.818Z,52.06
2022-08-05T06:03:40.570Z,50.34
2022-08-05T06:05:53.942Z,48.63
2022-08-05T06:08:31.627Z,49.57
2022-08-05T06:11:02.100Z,48.74
2022-08-05T06:13:40.944Z,49.23
2022-08-05T06:16:29.649Z,46.31
2022-08-05T06:19:02.021Z,46.66
2022-08-05T06:21:37.468Z,45.71
2022-08-05T06:24:11.997Z,45.10
2022-08-05T06:26:51.624Z,45.66
2022-08-05T06:29:25.185Z,45.63
2022-08-05T06:32:25.610Z,46.13
2022-08-05T06:35:05.766Z,45.95
2022-08-05T06:37:56.480Z,45.03
2022-08-05T06:40:28.006Z,45.07
2022-08-05T06:43:01.242Z,44.37
2022-08-05T06:46:02.817Z,43.46
2022-08-05T06:48:52.715Z,43.58
2022-08-05T06:51:09.599Z,42.92
2022-08-05T06:53:39.545Z,42.88
2022-08-05T06:56:16.277Z,41.91
2022-08-05T06:58:56.223Z,41.16
2022-08-05T07:01:31.909Z,40.96
2022-08-05T07:04:02.353Z,41.14
2022-08-05T07:06:32.717Z,39.63
2022-08-05T07:09:04.182Z,38.27
2022-08-05T07:11:37.006Z,39.11
2022-08-05T07:14:29.207Z,38.91
2022-08-05T07:18:08.483Z,38.17
2022-08-05T07:22:43.381Z,37.05
2022-08-05T07:25:55.463Z,36.18
2022-08-05T07:28:05.975Z,36.11
2022-08-05T07:30:39.751Z,35.73
2022-08-05T07:33:16.496Z,34.74
2022-08-05T07:36:03.189Z,34.61
2022-08-05T07:38:43.121Z,35.45
2022-08-05T07:42:13.277Z,35.34
2022-08-05T07:44:14.086Z,35.38
2022-08-05T07:46:49.695Z,35.40
2022-08-05T07:49:20.787Z,34.31
2022-08-05T07:51:53.561Z,34.64
2022-08-05T07:54:30.604Z,34.44
2022-08-05T07:57:41.711Z,35.05
2022-08-05T07:59:51.924Z,34.88
2022-08-05T08:02:26.651Z,33.55
2022-08-05T08:05:01.586Z,33.31
2022-08-05T08:07:39.532Z,33.40
2022-08-05T08:10:20.603Z,33.86
2022-08-05T08:12:50.558Z,33.06
2022-08-05T08:15:37.146Z,33.52
2022-08-05T08:18:13.751Z,33.17
2022-08-05T08:21:02.919Z,32.90
2022-08-05T08:24:02.489Z,31.95
2022-08-05T08:26:26.910Z,31.18
2022-08-05T08:29:21.564Z,31.30
2022-08-05T08:31:50.173Z,31.18
2022-08-05T08:34:30.831Z,30.46
2022-08-05T08:37:05.407Z,30.20
2022-08-05T08:39:37.526Z,29.78
2022-08-05T08:42:32.418Z,29.61
2022-08-05T08:45:20.397Z,29.36
2022-08-05T08:48:11.865Z,29.34
2022-08-05T08:51:23.078Z,30.59
2022-08-05T08:53:40.163Z,30.06
2022-08-05T08:56:13.306Z,29.51
2022-08-05T08:58:47.947Z,30.11
2022-08-05T09:01:19.725Z,29.72
2022-08-05T09:03:55.366Z,28.62
2022-08-05T09:06:31.483Z,28.68
2022-08-05T09:09:01.644Z,29.58
2022-08-05T09:11:51.071Z,28.97
2022-08-05T09:14:58.768Z,28.25
2022-08-05T09:17:16.176Z,27.77
2022-08-05T09:20:05.045Z,27.87
2022-08-05T09:23:07.918Z,28.39
2022-08-05T09:26:03.274Z,28.19
2022-08-05T09:28:34.690Z,26.98
2022-08-05T09:31:22.387Z,26.52
2022-08-05T09:34:05.547Z,25.62
2022-08-05T09:36:53.901Z,24.80
2022-08-05T09:39:39.530Z,23.67
2022-08-05T09:42:24.335Z,24.36
2022-08-05T09:45:03.576Z,25.44
2022-08-05T09:47:55.447Z,24.25
2022-08-05T09:50:37.710Z,24.49
2022-08-05T09:53:23.074Z,23.84
2022-08-05T09:56:03.996Z,23.83
2022-08-05T09:58:34.060Z,23.69
2022-08-05T10:01:13.299Z,23.95
2022-08-05T10:04:10.388Z,23.35
2022-08-05T10:06:59.387Z,23.55
2022-08-05T10:09:30.328Z,23.21
2022-08-05T10:12:30.708Z,23.21
2022-08-05T10:15:20.440Z,22.43
2022-08-05T10:18:17.761Z,22.41
2022-08-05T10:20:49.132Z,22.05
2022-08-05T10:23:55.765Z,22.25
2022-08-05T10:26:15.202Z,20.89
2022-08-05T10:28:46.359Z,21.05
2022-08-05T10:32:49.302Z,21.74
2022-08-05T10:34:08.257Z,20.64
2022-08-05T10:36:39.776Z,19.87
2022-08-05T10:39:24.890Z,20.75
2022-08-05T10:42:18.886Z,22.02
2022-08-05T10:45:21.243Z,21.75
2022-08-05T10:48:29.865Z,22.65
2022-08-05T10:51:04.017Z,22.57
2022-08-05T10:53:42.579Z,23.49
2022-08-05T10:56:25.035Z,24.90
2022-08-05T10:58:57.529Z,24.25
2022-08-05T11:01:54.578Z,23.78
2022-08-05T11:04:36.505Z,23.53
2022-08-05T11:07:08.463Z,23.22
2022-08-05T11:09:48.806Z,24.06
2022-08-05T11:12:37.456Z,22.20
2022-08-05T11:15:19.976Z,21.10
2022-08-05T11:17:59.747Z,20.92
2022-08-05T11:20:41.585Z,21.21
2022-08-05T11:24:04.473Z,22.48
2022-08-05T11:26:40.556Z,22.69
2022-08-05T11:29:37.288Z,22.27
2022-08-05T11:32:30.339Z,23.06
2022-08-05T11:34:58.927Z,23.18
2022-08-05T11:38:30.691Z,22.97
2022-08-05T11:41:14.130Z,22.17
2022-08-05T11:44:06.252Z,21.72
2022-08-05T11:47:09.880Z,22.17
2022-08-05T11:49:33.767Z,22.48
2022-08-05T11:52:11.611Z,21.72
2022-08-05T11:54:41.793Z,22.03
2022-08-05T11:57:24.243Z,22.45
2022-08-05T11:59:56.145Z,23.41
2022-08-05T12:02:33.006Z,23.54
2022-08-05T12:05:07.471Z,22.72
2022-08-05T12:08:03.664Z,22.51
2022-08-05T12:10:45.126Z,22.57
2022-08-05T12:13:18.870Z,24.73
2022-08-05T12:16:14.934Z,22.98
2022-08-05T12:18:48.978Z,23.08
2022-08-05T12:21:30.184Z,23.78
2022-08-05T12:24:07.405Z,24.01
2022-08-05T12:26:39.307Z,24.00
2022-08-05T12:29:23.046Z,22.89
2022-08-05T12:31:56.559Z,23.06
2022-08-05T12:34:31.506Z,23.35
2022-08-05T12:37:26.921Z,22.73
2022-08-05T12:40:03.569Z,22.51
2022-08-05T12:42:40.206Z,22.88
2022-08-05T12:45:10.712Z,22.40
2022-08-05T12:48:01.038Z,23.60
2022-08-05T12:50:27.974Z,22.21
2022-08-05T12:53:02.493Z,23.64
2022-08-05T12:55:32.514Z,24.97
2022-08-05T12:58:38.610Z,24.76
2022-08-05T13:02:02.755Z,23.95
2022-08-05T13:03:43.116Z,24.23
2022-08-05T13:06:17.664Z,25.24
2022-08-05T13:08:52.482Z,24.52
2022-08-05T13:12:01.102Z,24.17
2022-08-05T13:14:24.755Z,23.34
2022-08-05T13:17:20.521Z,23.23
2022-08-05T13:20:31.725Z,22.71
2022-08-05T13:23:00.647Z,22.89
2022-08-05T13:25:51.247Z,23.41
2022-08-05T13:28:20.757Z,24.70
2022-08-05T13:30:51.168Z,25.52
2022-08-05T13:34:23.129Z,25.25
2022-08-05T13:36:11.178Z,25.19
2022-08-05T13:38:43.377Z,24.99
2022-08-05T13:41:12.200Z,26.27
2022-08-05T13:43:44.590Z,25.43
2022-08-05T13:46:50.642Z,24.64
2022-08-05T13:49:13.854Z,23.14
2022-08-05T13:51:46.678Z,24.69
2022-08-05T13:54:24.958Z,24.36
2022-08-05T13:56:54.319Z,24.11
2022-08-05T13:59:26.972Z,24.22
2022-08-05T14:02:00.037Z,23.48
2022-08-05T14:04:51.112Z,23.51
2022-08-05T14:07:25.668Z,24.53
2022-08-05T14:10:28.174Z,23.94
2022-08-05T14:12:57.827Z,24.08
2022-08-05T14:16:08.157Z,23.98
2022-08-05T14:18:18.701Z,24.14
2022-08-05T14:20:54.821Z,23.83
2022-08-05T14:23:25.403Z,24.36
2022-08-05T14:25:58.398Z,24.15
2022-08-05T14:28:29.795Z,24.42
2022-08-05T14:31:01.411Z,23.98
2022-08-05T14:33:32.691Z,23.75
2022-08-05T14:36:21.651Z,23.93
2022-08-05T14:38:51.833Z,24.37
2022-08-05T14:41:20.511Z,23.83
2022-08-05T14:44:01.690Z,24.24
2022-08-05T14:46:38.580Z,24.78
2022-08-05T14:49:08.164Z,25.38
2022-08-05T14:51:43.033Z,25.07
2022-08-05T14:54:28.527Z,24.66
2022-08-05T14:56:59.918Z,24.46
2022-08-05T14:59:35.333Z,24.12
2022-08-05T15:02:15.768Z,25.10
2022-08-05T15:04:47.740Z,25.08
2022-08-05T15:08:05.510Z,24.56
2022-08-05T15:10:09.523Z,25.04
2022-08-05T15:12:59.917Z,24.62
2022-08-05T15:15:54.065Z,24.73
2022-08-05T15:18:17.758Z,25.47
2022-08-05T15:20:47.004Z,25.36
2022-08-05T15:23:17.058Z,25.74
2022-08-05T15:25:52.235Z,25.52
2022-08-05T15:28:27.059Z,26.20
2022-08-05T15:30:57.204Z,25.69
2022-08-05T15:33:56.756Z,26.52
2022-08-05T15:36:17.469Z,26.18
2022-08-05T15:40:41.324Z,25.92
2022-08-05T15:41:56.322Z,26.34
2022-08-05T15:44:30.212Z,25.64
2022-08-05T15:47:02.027Z,26.53
2022-08-05T15:49:53.764Z,26.77
2022-08-05T15:52:52.339Z,26.82
2022-08-05T15:55:16.181Z,27.23
2022-08-05T15:57:48.816Z,28.24
2022-08-05T16:00:26.510Z,27.86
2022-08-05T16:03:07.921Z,27.89
2022-08-05T16:05:39.144Z,28.14
2022-08-05T16:08:10.469Z,28.93
2022-08-05T16:10:44.617Z,28.68
2022-08-05T16:13:23.311Z,28.83
2022-08-05T16:15:52.614Z,29.41
2022-08-05T16:18:21.173Z,29.41
2022-08-05T16:20:58.161Z,29.75
2022-08-05T16:23:28.790Z,30.28
2022-08-05T16:26:17.355Z,30.62
2022-08-05T16:28:47.048Z,30.88
2022-08-05T16:31:15.777Z,31.42
2022-08-05T16:33:46.136Z,31.30
2022-08-05T16:36:20.366Z,31.89
2022-08-05T16:38:54.372Z,31.90
2022-08-05T16:42:15.413Z,32.49
2022-08-05T16:44:16.516Z,33.00
2022-08-05T16:46:55.482Z,32.96
2022-08-05T16:49:26.886Z,33.34
2022-08-05T16:51:57.955Z,33.61
2022-08-05T16:54:32.820Z,34.06
2022-08-05T16:57:01.840Z,34.34
2022-08-05T16:59:31.112Z,34.79
2022-08-05T17:02:00.923Z,35.12
2022-08-05T17:04:31.008Z,35.92
2022-08-05T17:07:03.189Z,35.46
2022-08-05T17:09:57.361Z,36.38
2022-08-05T17:12:51.354Z,37.08
2022-08-05T17:15:19.684Z,37.58
2022-08-05T17:18:02.128Z,37.30
2022-08-05T17:20:31.477Z,38.64
2022-08-05T17:23:00.311Z,38.35
2022-08-05T17:25:34.059Z,38.47
2022-08-05T17:28:09.943Z,39.17
2022-08-05T17:30:50.271Z,38.64
2022-08-05T17:33:21.794Z,39.63
2022-08-05T17:36:07.831Z,40.47
2022-08-05T17:38:39.702Z,41.58
2022-08-05T17:41:11.614Z,42.38
2022-08-05T17:43:58.813Z,42.90
2022-08-05T17:46:27.622Z,42.62
2022-08-05T17:48:56.351Z,41.87
2022-08-05T17:51:26.754Z,42.87
2022-08-05T17:53:55.408Z,42.15
2022-08-05T17:56:26.034Z,41.89
2022-08-05T17:58:57.650Z,42.30
2022-08-05T18:01:26.368Z,42.95
2022-08-05T18:04:04.199Z,43.73
2022-08-05T18:06:34.495Z,43.49
2022-08-05T18:09:03.479Z,44.81
2022-08-05T18:11:33.390Z,46.40
2022-08-05T18:14:13.535Z,48.07
2022-08-05T18:16:51.844Z,48.03
2022-08-05T18:19:23.059Z,48.61
2022-08-05T18:22:08.350Z,49.08
2022-08-05T18:24:40.591Z,49.03
2022-08-05T18:27:12.503Z,47.57
2022-08-05T18:29:54.311Z,48.51
2022-08-05T18:32:28.284Z,49.54
2022-08-05T18:34:58.713Z,50.50
2022-08-05T18:37:34.119Z,51.02
2022-08-05T18:41:50.053Z,50.96
2022-08-05T18:43:03.898Z,50.37
2022-08-05T18:45:41.525Z,50.76
2022-08-05T18:48:12.042Z,49.97
2022-08-05T18:52:06.709Z,50.91
2022-08-05T18:54:08.870Z,50.52
2022-08-05T18:56:38.083Z,48.84
2022-08-05T18:59:45.702Z,48.78
2022-08-05T19:01:57.992Z,49.47
2022-08-05T19:04:27.929Z,51.27
2022-08-05T19:06:57.573Z,52.63
2022-08-05T19:09:26.422Z,53.05
2022-08-05T19:12:00.409Z,50.88
2022-08-05T19:14:44.705Z,50.18
2022-08-05T19:17:20.470Z,50.43
2022-08-05T19:19:51.584Z,51.06
2022-08-05T19:22:27.578Z,54.04
2022-08-05T19:25:02.591Z,53.58
2022-08-05T19:27:31.743Z,54.46
2022-08-05T19:30:02.947Z,53.88
2022-08-05T19:32:33.476Z,52.11
2022-08-05T19:35:05.619Z,52.29
2022-08-05T19:37:47.171Z,52.31
2022-08-05T19:40:24.789Z,53.19
2022-08-05T19:43:04.760Z,54.19
2022-08-05T19:45:38.059Z,54.71
2022-08-05T19:48:23.701Z,55.33
2022-08-05T19:50:54.823Z,58.02
2022-08-05T19:54:04.886Z,58.42
2022-08-05T19:56:20.389Z,57.55
2022-08-05T19:58:53.780Z,58.38
2022-08-05T20:01:28.576Z,57.92
2022-08-05T20:03:59.141Z,57.57
2022-08-05T20:06:29.331Z,57.49
2022-08-05T20:09:06.146Z,56.04
2022-08-05T20:11:43.000Z,55.64
2022-08-05T20:14:26.562Z,56.60
2022-08-05T20:16:58.795Z,57.95
2022-08-05T20:19:35.926Z,56.13
2022-08-05T20:22:05.681Z,56.77
2022-08-05T20:24:38.510Z,57.64
2022-08-05T20:27:11.239Z,57.45
2022-08-05T20:29:40.517Z,58.05
2022-08-05T20:32:10.329Z,57.51
2022-08-05T20:34:41.478Z,58.09
2022-08-05T20:37:18.170Z,57.86
2022-08-05T20:39:59.249Z,57.39
2022-08-05T20:42:28.344Z,58.15
2022-08-05T20:44:57.039Z,59.80
2022-08-05T20:47:31.681Z,61.16
2022-08-05T20:50:02.557Z,59.34
2022-08-05T20:52:34.354Z,60.82
2022-08-05T20:55:56.329Z,61.46
2022-08-05T20:57:52.403Z,60.97
2022-08-05T21:00:49.818Z,59.99
2022-08-05T21:03:16.652Z,61.24
2022-08-05T21:05:54.428Z,59.86
2022-08-05T21:08:26.472Z,60.05
2022-08-05T21:10:58.344Z,61.21
2022-08-05T21:13:47.420Z,62.50
2022-08-05T21:16:17.478Z,63.56
2022-08-05T21:18:46.643Z,62.51
2022-08-05T21:21:16.542Z,61.46
2022-08-05T21:23:47.188Z,63.86
2022-08-05T21:26:16.667Z,62.76
2022-08-05T21:28:47.934Z,62.42
2022-08-05T21:31:19.898Z,63.49
2022-08-05T21:33:50.354Z,63.97
2022-08-05T21:36:29.930Z,65.26
2022-08-05T21:39:01.784Z,65.54
2022-08-05T21:41:35.368Z,65.41
2022-08-05T21:44:05.099Z,65.03
2022-08-05T21:46:35.000Z,62.92
2022-08-05T21:49:07.505Z,62.22
2022-08-05T21:52:16.457Z,64.61
2022-08-05T21:54:28.064Z,65.45
2022-08-05T21:57:31.611Z,67.04
2022-08-05T22:00:03.361Z,68.00
2022-08-05T22:02:42.740Z,66.45
2022-08-05T22:05:13.412Z,65.35
2022-08-05T22:07:58.889Z,65.88
2022-08-05T22:10:31.165Z,67.10
2022-08-05T22:14:06.358Z,66.39
2022-08-05T22:16:02.157Z,66.01
2022-08-05T22:18:36.679Z,65.87
2022-08-05T22:21:18.965Z,67.57
2022-08-05T22:24:13.018Z,66.49
2022-08-05T22:27:17.345Z,68.03
2022-08-05T22:29:47.263Z,68.45
2022-08-05T22:32:17.301Z,68.40
2022-08-05T22:34:46.545Z,67.98
2022-08-05T22:37:15.335Z,68.36
2022-08-05T22:39:44.277Z,68.15
2022-08-05T22:42:25.505Z,67.92
2022-08-05T22:44:56.540Z,68.85
2022-08-05T22:47:29.386Z,69.99
2022-08-05T22:50:17.985Z,68.25
2022-08-05T22:52:52.446Z,68.86
2022-08-05T22:55:23.403Z,69.29
2022-08-05T22:57:53.673Z,69.64
2022-08-05T23:00:24.396Z,70.46
2022-08-05T23:02:55.227Z,70.68
2022-08-05T23:05:24.837Z,70.70
2022-08-05T23:07:53.713Z,70.68
2022-08-05T23:10:23.727Z,68.94
2022-08-05T23:12:55.804Z,70.09
2022-08-05T23:15:29.860Z,70.56
2022-08-05T23:18:06.159Z,68.87
2022-08-05T23:20:45.213Z,68.66
2022-08-05T23:23:13.894Z,70.30
2022-08-05T23:25:52.910Z,72.14
2022-08-05T23:28:29.243Z,73.13
2022-08-05T23:31:07.100Z,72.75
2022-08-05T23:34:04.915Z,72.32
2022-08-05T23:36:40.093Z,69.85
2022-08-05T23:39:32.248Z,72.51
2022-08-05T23:42:10.850Z,71.95
2022-08-05T23:44:43.645Z,73.54
2022-08-05T23:47:15.339Z,74.49
2022-08-05T23:49:48.452Z,73.80
2022-08-05T23:52:27.574Z,74.05
2022-08-05T23:54:59.667Z,73.69
2022-08-05T23:57:29.578Z,73.93
